createdAt,value
2018-12-06T00:02:06.390Z,4.40
2018-12-06T00:04:33.873Z,4.40
2018-12-06T00:07:01.388Z,4.40
2018-12-06T00:09:28.850Z,4.40
2018-12-06T00:11:56.342Z,4.30
2018-12-06T00:14:23.906Z,4.30
2018-12-06T00:16:53.791Z,4.30
2018-12-06T00:19:21.274Z,4.30
2018-12-06T00:21:48.818Z,4.20
2018-12-06T00:24:16.295Z,4.30
2018-12-06T00:26:44.036Z,4.20
2018-12-06T00:29:11.484Z,4.30
2018-12-06T00:31:39.342Z,4.30
2018-12-06T00:34:06.810Z,4.30
2018-12-06T00:36:34.285Z,4.20
2018-12-06T00:39:01.765Z,4.30
2018-12-06T00:41:29.312Z,4.30
2018-12-06T00:43:56.786Z,4.30
2018-12-06T00:46:24.300Z,4.30
2018-12-06T00:48:51.764Z,4.30
2018-12-06T00:51:19.233Z,4.40
2018-12-06T00:53:46.756Z,4.40
2018-12-06T00:56:14.193Z,4.40
2018-12-06T00:58:41.628Z,4.40
2018-12-06T01:01:09.134Z,4.30
2018-12-06T01:03:36.725Z,4.40
2018-12-06T01:06:04.192Z,4.30
2018-12-06T01:08:31.691Z,4.30
2018-12-06T01:10:59.190Z,4.30
2018-12-06T01:13:26.645Z,4.30
2018-12-06T01:15:54.118Z,4.40
2018-12-06T01:18:21.692Z,4.50
2018-12-06T01:20:49.178Z,4.50
2018-12-06T01:23:16.649Z,4.60
2018-12-06T01:25:44.111Z,4.70
2018-12-06T01:28:11.580Z,4.70
2018-12-06T01:30:39.155Z,4.70
2018-12-06T01:33:06.945Z,4.70
2018-12-06T01:35:34.409Z,4.70
2018-12-06T01:38:01.929Z,4.70
2018-12-06T01:40:29.409Z,4.70
2018-12-06T01:42:56.905Z,4.70
2018-12-06T01:45:24.397Z,4.70
2018-12-06T01:47:51.852Z,4.70
2018-12-06T01:50:19.297Z,4.70
2018-12-06T01:52:46.791Z,4.80
2018-12-06T01:55:14.349Z,4.80
2018-12-06T01:57:41.823Z,4.80
2018-12-06T02:00:09.315Z,4.70
2018-12-06T02:02:36.769Z,4.60
2018-12-06T02:05:04.609Z,4.50
2018-12-06T02:07:32.069Z,4.50
2018-12-06T02:09:59.558Z,4.40
2018-12-06T02:12:27.063Z,4.40
2018-12-06T02:14:54.552Z,4.40
2018-12-06T02:17:22.060Z,4.30
2018-12-06T02:19:49.519Z,4.20
2018-12-06T02:22:17.018Z,4.20
2018-12-06T02:24:44.997Z,4.20
2018-12-06T02:27:12.531Z,4.30
2018-12-06T02:29:45.542Z,4.30
2018-12-06T02:32:13.012Z,4.30
2018-12-06T02:34:40.495Z,4.30
2018-12-06T02:37:07.982Z,4.30
2018-12-06T02:39:35.416Z,4.30
2018-12-06T02:42:03.013Z,4.30
2018-12-06T02:44:30.508Z,4.30
2018-12-06T02:46:57.967Z,4.30
2018-12-06T02:49:25.414Z,4.30
2018-12-06T02:51:52.917Z,4.20
2018-12-06T02:54:20.377Z,4.20
2018-12-06T02:56:47.865Z,4.20
2018-12-06T02:59:15.382Z,4.20
2018-12-06T03:01:42.895Z,4.20
2018-12-06T03:04:12.196Z,4.20
2018-12-06T03:06:39.671Z,4.40
2018-12-06T03:09:07.280Z,4.40
2018-12-06T03:11:34.945Z,4.40
2018-12-06T03:14:02.381Z,4.40
2018-12-06T03:16:29.875Z,4.40
2018-12-06T03:18:57.355Z,4.40
2018-12-06T03:21:24.796Z,4.40
2018-12-06T03:23:52.384Z,4.40
2018-12-06T03:26:19.862Z,4.40
2018-12-06T03:28:47.348Z,4.50
2018-12-06T03:31:14.827Z,4.50
2018-12-06T03:33:42.312Z,4.50
2018-12-06T03:36:09.800Z,4.60
2018-12-06T03:38:37.301Z,4.60
2018-12-06T03:41:04.768Z,4.60
2018-12-06T03:43:32.489Z,4.60
2018-12-06T03:45:59.940Z,4.60
2018-12-06T03:48:27.415Z,4.60
2018-12-06T03:50:54.961Z,4.60
2018-12-06T03:53:22.403Z,4.60
2018-12-06T03:55:49.878Z,4.60
2018-12-06T03:58:17.312Z,4.70
2018-12-06T04:00:44.782Z,4.70
2018-12-06T04:03:12.265Z,4.70
2018-12-06T04:05:39.749Z,4.70
2018-12-06T04:08:07.203Z,4.70
2018-12-06T04:10:34.658Z,4.70
2018-12-06T04:13:02.135Z,4.80
2018-12-06T04:15:29.623Z,4.80
2018-12-06T04:17:57.058Z,4.80
2018-12-06T04:20:26.423Z,4.80
2018-12-06T04:22:53.978Z,4.80
2018-12-06T04:25:21.567Z,4.90
2018-12-06T04:27:49.003Z,4.80
2018-12-06T04:30:16.464Z,4.80
2018-12-06T04:32:44.708Z,4.70
2018-12-06T04:35:12.159Z,4.80
2018-12-06T04:37:39.601Z,4.80
2018-12-06T04:40:07.103Z,4.70
2018-12-06T04:42:34.538Z,4.70
2018-12-06T04:45:01.994Z,4.60
2018-12-06T04:47:29.466Z,4.60
2018-12-06T04:49:56.934Z,4.70
2018-12-06T04:52:24.418Z,4.70
2018-12-06T04:54:51.923Z,4.70
2018-12-06T04:57:19.469Z,4.70
2018-12-06T04:59:46.936Z,4.70
2018-12-06T05:02:14.414Z,4.70
2018-12-06T05:04:41.861Z,4.70
2018-12-06T05:07:09.324Z,4.60
2018-12-06T05:09:36.811Z,4.60
2018-12-06T05:12:04.285Z,4.60
2018-12-06T05:14:31.844Z,4.60
2018-12-06T05:16:59.321Z,4.50
2018-12-06T05:19:26.770Z,4.50
2018-12-06T05:21:54.280Z,4.40
2018-12-06T05:24:21.743Z,4.40
2018-12-06T05:26:49.239Z,4.50
2018-12-06T05:29:16.661Z,4.50
2018-12-06T05:31:44.113Z,4.50
2018-12-06T05:34:11.584Z,4.50
2018-12-06T05:36:39.038Z,4.50
2018-12-06T05:39:06.527Z,4.40
2018-12-06T05:41:33.991Z,4.40
2018-12-06T05:44:01.430Z,4.50
2018-12-06T05:46:28.940Z,4.50
2018-12-06T05:48:56.364Z,4.50
2018-12-06T05:51:23.818Z,4.50
2018-12-06T05:53:51.278Z,4.50
2018-12-06T05:56:18.736Z,4.50
2018-12-06T05:58:46.267Z,4.50
2018-12-06T06:01:13.733Z,4.50
2018-12-06T06:03:41.184Z,4.60
2018-12-06T06:06:08.658Z,4.50
2018-12-06T06:08:36.114Z,4.60
2018-12-06T06:11:03.651Z,4.60
2018-12-06T06:13:31.190Z,4.70
2018-12-06T06:15:59.526Z,4.70
2018-12-06T06:18:26.966Z,4.70
2018-12-06T06:20:54.405Z,4.70
2018-12-06T06:23:21.871Z,4.70
2018-12-06T06:25:49.361Z,4.70
2018-12-06T06:28:16.827Z,4.80
2018-12-06T06:30:44.266Z,4.70
2018-12-06T06:33:11.746Z,4.70
2018-12-06T06:35:39.193Z,4.70
2018-12-06T06:38:06.651Z,4.80
2018-12-06T06:40:34.124Z,4.90
2018-12-06T06:43:01.587Z,4.90
2018-12-06T06:45:29.097Z,5.00
2018-12-06T06:47:56.563Z,5.00
2018-12-06T06:50:24.031Z,5.10
2018-12-06T06:52:51.466Z,5.20
2018-12-06T06:55:18.943Z,5.20
2018-12-06T06:57:46.560Z,5.20
2018-12-06T07:00:14.223Z,5.30
2018-12-06T07:02:42.025Z,5.30
2018-12-06T07:05:09.757Z,5.40
2018-12-06T07:07:37.392Z,5.40
2018-12-06T07:10:06.814Z,5.50
2018-12-06T07:12:34.407Z,5.50
2018-12-06T07:15:02.482Z,5.60
2018-12-06T07:17:30.157Z,5.60
2018-12-06T07:19:57.716Z,5.60
2018-12-06T07:22:25.284Z,5.70
2018-12-06T07:24:52.990Z,5.70
2018-12-06T07:27:20.622Z,5.70
2018-12-06T07:29:48.609Z,5.80
2018-12-06T07:32:16.346Z,5.80
2018-12-06T07:34:43.964Z,5.80
2018-12-06T07:37:11.571Z,5.80
2018-12-06T07:39:39.177Z,5.80
2018-12-06T07:42:06.782Z,5.80
2018-12-06T07:44:34.340Z,5.80
2018-12-06T07:47:01.936Z,5.80
2018-12-06T07:49:29.579Z,5.90
2018-12-06T07:51:57.333Z,6.00
2018-12-06T07:54:24.929Z,6.00
2018-12-06T07:56:52.478Z,6.10
2018-12-06T07:59:20.137Z,6.20
2018-12-06T08:01:47.806Z,6.20
2018-12-06T08:04:15.441Z,6.20
2018-12-06T08:06:43.962Z,6.20
2018-12-06T08:09:11.612Z,6.30
2018-12-06T08:11:39.177Z,6.30
2018-12-06T08:14:06.790Z,6.30
2018-12-06T08:16:34.443Z,6.40
2018-12-06T08:19:02.061Z,6.40
2018-12-06T08:21:29.695Z,6.50
2018-12-06T08:23:57.295Z,6.70
2018-12-06T08:28:58.725Z,6.80
2018-12-06T08:31:26.354Z,6.90
2018-12-06T08:33:53.993Z,7.10
2018-12-06T08:36:21.695Z,7.20
2018-12-06T08:38:49.368Z,7.20
2018-12-06T08:41:17.068Z,7.20
2018-12-06T08:43:44.659Z,7.30
2018-12-06T08:46:12.250Z,7.30
2018-12-06T08:48:39.836Z,7.30
2018-12-06T08:51:07.481Z,7.40
2018-12-06T08:53:35.129Z,7.30
2018-12-06T08:56:02.822Z,7.30
2018-12-06T08:58:30.441Z,7.30
2018-12-06T09:00:57.907Z,7.30
2018-12-06T09:03:25.424Z,7.30
2018-12-06T09:05:52.866Z,7.30
2018-12-06T09:08:20.342Z,7.30
2018-12-06T09:10:51.585Z,7.40
2018-12-06T09:13:17.254Z,7.40
2018-12-06T09:15:44.707Z,7.50
2018-12-06T09:18:12.150Z,7.60
2018-12-06T09:20:39.594Z,7.80
2018-12-06T09:23:07.045Z,7.80
2018-12-06T09:25:34.528Z,7.80
2018-12-06T09:28:02.018Z,7.80
2018-12-06T09:30:29.697Z,7.90
2018-12-06T09:32:57.156Z,7.90
2018-12-06T09:35:24.590Z,7.90
2018-12-06T09:37:52.083Z,7.90
2018-12-06T09:40:19.516Z,7.80
2018-12-06T09:42:46.998Z,7.80
2018-12-06T09:45:14.562Z,7.70
2018-12-06T09:47:42.013Z,7.80
2018-12-06T09:50:09.515Z,7.70
2018-12-06T09:52:36.951Z,7.70
2018-12-06T09:55:04.540Z,7.70
2018-12-06T09:57:32.774Z,7.70
2018-12-06T10:00:00.240Z,7.70
2018-12-06T10:02:27.724Z,7.60
2018-12-06T10:04:55.189Z,7.60
2018-12-06T10:07:22.727Z,7.60
2018-12-06T10:09:50.161Z,7.50
2018-12-06T10:12:17.625Z,7.50
2018-12-06T10:14:45.068Z,7.50
2018-12-06T10:17:12.569Z,7.50
2018-12-06T10:19:40.013Z,7.50
2018-12-06T10:22:07.522Z,7.50
2018-12-06T10:24:34.986Z,7.50
2018-12-06T10:27:02.554Z,7.60
2018-12-06T10:29:30.012Z,7.60
2018-12-06T10:31:57.726Z,7.50
2018-12-06T10:34:25.179Z,7.60
2018-12-06T10:36:52.612Z,7.60
2018-12-06T10:39:20.101Z,7.70
2018-12-06T10:41:47.561Z,7.70
2018-12-06T10:44:27.462Z,7.80
2018-12-06T10:46:54.911Z,8.00
2018-12-06T10:49:22.354Z,8.10
2018-12-06T10:51:49.852Z,8.20
2018-12-06T10:54:17.543Z,8.40
2018-12-06T10:56:45.061Z,8.50
2018-12-06T10:59:12.507Z,8.60
2018-12-06T11:01:45.786Z,8.70
2018-12-06T11:04:13.372Z,8.70
2018-12-06T11:06:41.009Z,8.70
2018-12-06T11:09:08.601Z,8.70
2018-12-06T11:11:36.069Z,8.70
2018-12-06T11:14:03.776Z,8.70
2018-12-06T11:16:31.232Z,8.60
2018-12-06T11:18:58.850Z,8.60
2018-12-06T11:21:57.655Z,8.50
2018-12-06T11:24:25.118Z,8.40
2018-12-06T11:26:52.626Z,8.40
2018-12-06T11:29:20.110Z,8.40
2018-12-06T11:31:47.558Z,8.30
2018-12-06T11:34:15.082Z,8.30
2018-12-06T11:36:42.632Z,8.30
2018-12-06T11:39:10.136Z,8.30
2018-12-06T11:41:42.917Z,8.30
2018-12-06T11:44:07.036Z,8.30
2018-12-06T11:46:34.596Z,8.40
2018-12-06T11:49:02.082Z,8.40
2018-12-06T11:51:29.526Z,8.30
2018-12-06T11:53:56.991Z,8.20
2018-12-06T11:56:24.496Z,8.20
2018-12-06T11:58:51.982Z,8.20
2018-12-06T12:01:19.439Z,8.20
2018-12-06T12:03:46.915Z,8.20
2018-12-06T12:06:14.411Z,8.20
2018-12-06T12:08:42.093Z,8.20
2018-12-06T12:11:10.421Z,8.20
2018-12-06T12:13:38.797Z,8.30
2018-12-06T12:16:06.260Z,8.20
2018-12-06T12:18:33.716Z,8.30
2018-12-06T12:21:01.190Z,8.30
2018-12-06T12:23:28.660Z,8.30
2018-12-06T12:25:56.123Z,8.30
2018-12-06T12:28:23.663Z,8.30
2018-12-06T12:30:51.121Z,8.30
2018-12-06T12:33:18.588Z,8.30
2018-12-06T12:35:46.081Z,8.30
2018-12-06T12:38:13.528Z,8.30
2018-12-06T12:40:41.080Z,8.30
2018-12-06T12:43:08.528Z,8.30
2018-12-06T12:45:35.990Z,8.30
2018-12-06T12:48:03.453Z,8.30
2018-12-06T12:50:30.949Z,8.30
2018-12-06T12:52:58.527Z,8.20
2018-12-06T12:55:26.046Z,8.20
2018-12-06T12:57:53.534Z,8.20
2018-12-06T13:00:21.014Z,8.10
2018-12-06T13:02:48.478Z,8.00
2018-12-06T13:05:15.940Z,8.00
2018-12-06T13:07:43.411Z,8.00
2018-12-06T13:10:10.877Z,8.10
2018-12-06T13:12:38.384Z,8.00
2018-12-06T13:15:05.980Z,8.00
2018-12-06T13:17:33.493Z,8.00
2018-12-06T13:20:01.579Z,8.00
2018-12-06T13:22:29.151Z,8.00
2018-12-06T13:24:56.665Z,8.00
2018-12-06T13:27:24.135Z,7.90
2018-12-06T13:29:51.690Z,8.00
2018-12-06T13:32:19.192Z,7.90
2018-12-06T13:34:46.665Z,8.00
2018-12-06T13:37:14.225Z,8.00
2018-12-06T13:39:41.744Z,8.00
2018-12-06T13:42:09.208Z,8.00
2018-12-06T13:44:36.680Z,8.10
2018-12-06T13:47:04.231Z,8.10
2018-12-06T13:49:31.678Z,8.10
2018-12-06T13:51:59.136Z,8.10
2018-12-06T13:54:27.028Z,8.00
2018-12-06T13:56:54.672Z,8.10
2018-12-06T13:59:22.358Z,8.10
2018-12-06T14:01:49.860Z,8.10
2018-12-06T14:04:17.302Z,8.10
2018-12-06T14:06:44.826Z,8.10
2018-12-06T14:09:12.307Z,8.10
2018-12-06T14:11:39.781Z,8.10
2018-12-06T14:14:07.359Z,8.00
2018-12-06T14:16:34.881Z,8.00
2018-12-06T14:19:02.378Z,8.10
2018-12-06T14:21:29.831Z,8.00
2018-12-06T14:23:57.286Z,8.10
2018-12-06T14:26:24.730Z,8.00
2018-12-06T14:28:52.190Z,8.10
2018-12-06T14:31:19.636Z,8.10
2018-12-06T14:33:47.100Z,8.10
2018-12-06T14:36:14.543Z,8.10
2018-12-06T14:38:42.026Z,8.20
2018-12-06T14:41:09.606Z,8.10
2018-12-06T14:43:38.057Z,8.10
2018-12-06T14:46:05.606Z,8.10
2018-12-06T14:48:33.079Z,8.20
2018-12-06T14:51:00.513Z,8.10
2018-12-06T14:53:28.154Z,8.10
2018-12-06T14:55:55.654Z,8.20
2018-12-06T14:58:23.121Z,8.10
2018-12-06T15:00:50.590Z,8.10
2018-12-06T15:03:18.075Z,8.10
2018-12-06T15:05:45.607Z,8.10
2018-12-06T15:08:13.086Z,8.20
2018-12-06T15:10:40.722Z,8.10
2018-12-06T15:13:08.199Z,8.10
2018-12-06T15:15:35.658Z,8.10
2018-12-06T15:18:03.141Z,8.10
2018-12-06T15:20:30.635Z,8.20
2018-12-06T15:22:58.094Z,8.20
2018-12-06T15:25:25.844Z,8.20
2018-12-06T15:27:53.554Z,8.20
2018-12-06T15:30:21.294Z,8.20
2018-12-06T15:32:48.763Z,8.20
2018-12-06T15:35:16.698Z,8.20
2018-12-06T15:37:44.161Z,8.10
2018-12-06T15:40:11.694Z,8.00
2018-12-06T15:42:39.343Z,8.00
2018-12-06T15:45:06.926Z,8.00
2018-12-06T15:47:34.416Z,8.10
2018-12-06T15:50:01.979Z,8.00
2018-12-06T15:52:29.542Z,8.00
2018-12-06T15:54:57.006Z,8.00
2018-12-06T15:57:24.477Z,8.00
2018-12-06T15:59:51.968Z,8.10
2018-12-06T16:02:19.421Z,8.10
2018-12-06T16:04:46.932Z,8.20
2018-12-06T16:07:14.648Z,8.20
2018-12-06T16:09:42.114Z,8.20
2018-12-06T16:12:09.650Z,8.20
2018-12-06T16:14:37.116Z,8.20
2018-12-06T16:17:04.586Z,8.30
2018-12-06T16:19:32.139Z,8.40
2018-12-06T16:21:59.645Z,8.40
2018-12-06T16:24:28.921Z,8.40
2018-12-06T16:26:56.470Z,8.40
2018-12-06T16:29:23.935Z,8.40
2018-12-06T16:31:51.374Z,8.40
2018-12-06T16:34:19.348Z,8.40
2018-12-06T16:36:46.812Z,8.40
2018-12-06T16:39:14.275Z,8.40
2018-12-06T16:41:41.772Z,8.40
2018-12-06T16:44:09.248Z,8.40
2018-12-06T16:46:37.120Z,8.40
2018-12-06T16:49:10.160Z,8.40
2018-12-06T16:51:34.039Z,8.40
2018-12-06T16:54:01.837Z,8.40
2018-12-06T16:56:29.294Z,8.40
2018-12-06T16:58:56.861Z,8.40
2018-12-06T17:01:24.740Z,8.40
2018-12-06T17:03:52.222Z,8.40
2018-12-06T17:06:19.746Z,8.40
2018-12-06T17:08:47.626Z,8.40
2018-12-06T17:11:15.179Z,8.40
2018-12-06T17:13:42.643Z,8.40
2018-12-06T17:16:10.194Z,8.40
2018-12-06T17:18:37.683Z,8.40
2018-12-06T17:21:05.190Z,8.40
2018-12-06T17:23:32.661Z,8.40
2018-12-06T17:26:00.121Z,8.40
2018-12-06T17:28:27.586Z,8.40
2018-12-06T17:30:55.082Z,8.40
2018-12-06T17:33:22.559Z,8.40
2018-12-06T17:35:50.022Z,8.40
2018-12-06T17:38:17.521Z,8.40
2018-12-06T17:40:44.978Z,8.40
2018-12-06T17:43:12.434Z,8.40
2018-12-06T17:45:39.928Z,8.40
2018-12-06T17:48:07.348Z,8.40
2018-12-06T17:50:34.834Z,8.40
2018-12-06T17:53:02.336Z,8.40
2018-12-06T17:55:30.197Z,8.40
2018-12-06T17:57:57.676Z,8.40
2018-12-06T18:00:25.144Z,8.50
2018-12-06T18:02:52.615Z,8.40
2018-12-06T18:05:20.094Z,8.40
2018-12-06T18:07:49.252Z,8.50
2018-12-06T18:10:16.964Z,8.50
2018-12-06T18:12:44.419Z,8.50
2018-12-06T18:15:11.912Z,8.50
2018-12-06T18:17:39.405Z,8.50
2018-12-06T18:20:07.097Z,8.50
2018-12-06T18:22:34.545Z,8.50
2018-12-06T18:25:02.054Z,8.40
2018-12-06T18:27:29.516Z,8.50
2018-12-06T18:29:56.983Z,8.50
2018-12-06T18:32:24.590Z,8.50
2018-12-06T18:34:52.025Z,8.40
2018-12-06T18:37:19.520Z,8.40
2018-12-06T18:39:47.023Z,8.40
2018-12-06T18:42:14.469Z,8.40
2018-12-06T18:44:41.952Z,8.50
2018-12-06T18:47:09.413Z,8.40
2018-12-06T18:49:36.874Z,8.50
2018-12-06T18:52:04.433Z,8.50
2018-12-06T18:54:31.875Z,8.50
2018-12-06T18:56:59.336Z,8.50
2018-12-06T18:59:26.802Z,8.50
2018-12-06T19:01:54.310Z,8.50
2018-12-06T19:04:21.793Z,8.50
2018-12-06T19:06:49.283Z,8.50
2018-12-06T19:09:16.739Z,8.50
2018-12-06T19:11:44.281Z,8.50
2018-12-06T19:14:11.817Z,8.50
2018-12-06T19:16:39.311Z,8.40
2018-12-06T19:19:06.760Z,8.50
2018-12-06T19:21:34.212Z,8.50
2018-12-06T19:24:01.710Z,8.50
2018-12-06T19:26:29.191Z,8.50
2018-12-06T19:28:56.628Z,8.50
2018-12-06T19:31:24.100Z,8.50
2018-12-06T19:33:51.578Z,8.60
2018-12-06T19:36:19.064Z,8.60
2018-12-06T19:38:46.542Z,8.60
2018-12-06T19:41:14.226Z,8.60
2018-12-06T19:43:41.770Z,8.60
2018-12-06T19:46:09.287Z,8.60
2018-12-06T19:48:36.753Z,8.60
2018-12-06T19:51:04.234Z,8.60
2018-12-06T19:53:31.701Z,8.60
2018-12-06T19:55:59.192Z,8.70
2018-12-06T19:58:26.662Z,8.70
2018-12-06T20:00:54.148Z,8.70
2018-12-06T20:03:21.915Z,8.70
2018-12-06T20:05:49.382Z,8.70
2018-12-06T20:08:16.840Z,8.70
2018-12-06T20:10:44.393Z,8.70
2018-12-06T20:13:11.883Z,8.80
2018-12-06T20:15:39.408Z,8.70
2018-12-06T20:18:06.927Z,8.70
2018-12-06T20:20:34.378Z,8.70
2018-12-06T20:23:01.821Z,8.70
2018-12-06T20:25:29.271Z,8.70
2018-12-06T20:27:56.745Z,8.70
2018-12-06T20:30:24.208Z,8.60
2018-12-06T20:32:51.656Z,8.60
2018-12-06T20:35:19.127Z,8.60
2018-12-06T20:37:46.630Z,8.60
2018-12-06T20:40:14.090Z,8.60
2018-12-06T20:42:41.572Z,8.70
2018-12-06T20:45:09.113Z,8.70
2018-12-06T20:47:36.553Z,8.60
2018-12-06T20:50:04.157Z,8.70
2018-12-06T20:52:31.587Z,8.70
2018-12-06T20:54:59.074Z,8.70
2018-12-06T20:57:26.518Z,8.70
2018-12-06T20:59:53.977Z,8.70
2018-12-06T21:02:21.421Z,8.70
2018-12-06T21:04:48.915Z,8.70
2018-12-06T21:07:16.346Z,8.60
2018-12-06T21:09:43.840Z,8.70
2018-12-06T21:12:11.306Z,8.70
2018-12-06T21:14:38.776Z,8.70
2018-12-06T21:17:06.236Z,8.70
2018-12-06T21:19:33.737Z,8.70
2018-12-06T21:22:01.242Z,8.70
2018-12-06T21:24:29.025Z,8.70
2018-12-06T21:26:56.477Z,8.70
2018-12-06T21:29:23.918Z,8.70
2018-12-06T21:31:51.353Z,8.60
2018-12-06T21:34:18.806Z,8.60
2018-12-06T21:36:46.938Z,8.60
2018-12-06T21:39:14.377Z,8.60
2018-12-06T21:41:41.846Z,8.60
2018-12-06T21:44:09.306Z,8.60
2018-12-06T21:46:36.786Z,8.70
2018-12-06T21:49:04.562Z,8.70
2018-12-06T21:51:32.073Z,8.70
2018-12-06T21:53:59.544Z,8.80
2018-12-06T21:56:26.988Z,8.80
2018-12-06T21:58:54.445Z,8.80
2018-12-06T22:01:21.913Z,8.80
2018-12-06T22:03:49.415Z,8.80
2018-12-06T22:06:16.883Z,8.80
2018-12-06T22:08:44.356Z,8.90
2018-12-06T22:11:11.832Z,8.80
2018-12-06T22:13:39.333Z,8.90
2018-12-06T22:16:06.789Z,8.90
2018-12-06T22:18:34.250Z,8.90
2018-12-06T22:21:01.705Z,8.90
2018-12-06T22:23:29.156Z,8.90
2018-12-06T22:25:56.630Z,8.90
2018-12-06T22:28:24.145Z,8.90
2018-12-06T22:30:51.606Z,9.00
2018-12-06T22:33:19.056Z,9.00
2018-12-06T22:35:46.573Z,9.00
2018-12-06T22:38:14.000Z,8.90
2018-12-06T22:40:41.610Z,8.90
2018-12-06T22:43:09.079Z,8.90
2018-12-06T22:45:54.437Z,8.90
2018-12-06T22:48:22.031Z,8.90
2018-12-06T22:50:49.560Z,8.90
2018-12-06T22:53:17.008Z,8.90
2018-12-06T22:55:44.480Z,8.90
2018-12-06T22:58:11.966Z,8.90
2018-12-06T23:00:42.195Z,8.90
2018-12-06T23:03:09.663Z,8.90
2018-12-06T23:05:37.131Z,8.90
2018-12-06T23:08:04.785Z,8.90
2018-12-06T23:10:32.268Z,8.90
2018-12-06T23:12:59.761Z,8.90
2018-12-06T23:15:27.222Z,8.90
2018-12-06T23:17:54.678Z,8.80
2018-12-06T23:20:22.162Z,8.90
2018-12-06T23:22:49.613Z,8.80
2018-12-06T23:25:17.285Z,8.90
2018-12-06T23:27:44.765Z,8.80
2018-12-06T23:30:12.216Z,8.80
2018-12-06T23:32:39.679Z,8.80
2018-12-06T23:35:07.158Z,8.80
2018-12-06T23:37:34.678Z,8.90
2018-12-06T23:40:04.960Z,8.90
2018-12-06T23:42:32.739Z,8.90
2018-12-06T23:45:00.434Z,8.90
2018-12-06T23:47:27.932Z,8.90
2018-12-06T23:49:55.425Z,8.90
2018-12-06T23:52:22.867Z,8.80
2018-12-06T23:54:50.330Z,8.80
2018-12-06T23:57:17.846Z,8.80
2018-12-06T23:59:45.326Z,8.80
